Tyro, KS

1:56 PM CST on March 02, 2015 (GMT -0600)
Bartlesville Municipal | Change Station
CLOSE
Current Station
Airport
Location: Bartlesville,
Elevation: 712 ft
Nearby Weather Stations

Elev 712 ft 36.77 °N, 96.01 °W | Updated 3 minutes ago

Mostly Cloudy
Mostly Cloudy
35 °F
Feels Like 29 °F
N
7
Wind Variable Wind from ESE

Today
High -- | Low -- °F
--% Chance of Precip.
Yesterday
High -- | Low -- °F
Precip. -- in
6:53 AM 6:18 PM
Waxing Gibbous, 92% visible
Pressure 30.34 in
Visibility 9.0 miles
Clouds Overcast 1700 ft
Windchill 29 °F
Dew Point 28 °F
Humidity 76%
Rainfall 0.00 in
Snow Depth Not available.
UV 2 out of 12
Pollen 6.60 out of 12
Air Quality Not available.
Flu Activity Not available.
METAR KBVO 021953Z AUTO 12006KT 9SM OVC017 02/M02 A3032 RMK AO2 SLP272 T00171022

More Conditions Fewer Conditions

Pressure 30.34 in
Visibility 9.0 miles
Clouds Overcast 1700 ft
Windchill 29 °F
Dew Point 28 °F
Humidity 76%
Rainfall 0.00 in
Snow Depth Not available.
UV 2 out of 12
Pollen 6.60 out of 12
Air Quality Not available.
Flu Activity Not available.
METAR KBVO 021953Z AUTO 12006KT 9SM OVC017 02/M02 A3032 RMK AO2 SLP272 T00171022

More Conditions Fewer Conditions

10-Day Weather Forecast

Almanac

Astronomy

Mar. 02, 2015 Rise Set
Actual Time
Civil Twilight
Nautical Twilight
Astronomical Twilight
Moon
Length of Visible Light
Length of Day
Tomorrow will be .
, % of the Moon is Illuminated

Today's Extremes

State Highs State Lows

Community

WunderPhotos

Upload Photos

1,801,922 photos uploaded!

WunderBlogs® & News

Nearby

Air Quality

  Air Quality AQ Index Pollutant
Not available.

Snow Depth

Station Depth Elevation

Earthquake Activity

City Distance Mag. Time & Date
Minimum magnitude displayed is 2.5.

Coastal Water Temperatures

Place Temperature

Nearby Weather Stations